createdAt,value
2018-03-26T00:01:48.389Z,46.30
2018-03-26T00:04:17.916Z,49.13
2018-03-26T00:06:47.379Z,47.20
2018-03-26T00:09:16.844Z,47.37
2018-03-26T00:11:46.348Z,46.73
2018-03-26T00:14:15.811Z,48.43
2018-03-26T00:16:45.276Z,51.17
2018-03-26T00:19:14.916Z,47.47
2018-03-26T00:21:44.435Z,49.57
2018-03-26T00:24:13.848Z,51.53
2018-03-26T00:26:43.636Z,51.67
2018-03-26T00:29:13.108Z,51.87
2018-03-26T00:31:42.575Z,50.50
2018-03-26T00:34:12.096Z,51.17
2018-03-26T00:36:41.560Z,47.40
2018-03-26T00:39:11.024Z,51.37
2018-03-26T00:41:40.524Z,48.17
2018-03-26T00:44:10.006Z,50.07
2018-03-26T00:46:39.459Z,50.87
2018-03-26T00:49:08.967Z,54.23
2018-03-26T00:51:38.431Z,52.67
2018-03-26T00:54:07.892Z,47.63
2018-03-26T00:56:37.700Z,49.70
2018-03-26T00:59:07.164Z,51.53
2018-03-26T01:01:36.631Z,48.83
2018-03-26T01:04:06.299Z,47.30
2018-03-26T01:06:35.768Z,49.47
2018-03-26T01:09:05.011Z,47.37
2018-03-26T01:11:33.444Z,46.70
2018-03-26T01:14:02.451Z,43.70
2018-03-26T01:16:30.680Z,44.23
2018-03-26T01:18:58.964Z,45.20
2018-03-26T01:21:27.964Z,40.77
2018-03-26T01:23:57.336Z,42.90
2018-03-26T01:26:25.823Z,39.53
2018-03-26T01:28:55.567Z,38.90
2018-03-26T01:31:23.796Z,41.87
2018-03-26T01:33:52.069Z,40.60
2018-03-26T01:36:20.302Z,37.10
2018-03-26T01:38:48.528Z,39.33
2018-03-26T01:41:18.496Z,37.87
2018-03-26T01:43:47.497Z,37.50
2018-03-26T01:46:15.729Z,35.83
2018-03-26T01:48:44.456Z,39.17
2018-03-26T01:51:12.697Z,33.23
2018-03-26T01:53:40.931Z,34.97
2018-03-26T01:56:11.967Z,35.87
2018-03-26T01:58:40.195Z,34.53
2018-03-26T02:01:09.197Z,35.03
2018-03-26T02:03:37.729Z,32.00
2018-03-26T02:06:06.725Z,33.70
2018-03-26T02:08:34.956Z,35.03
2018-03-26T02:11:03.245Z,32.47
2018-03-26T02:13:32.248Z,32.03
2018-03-26T02:16:01.621Z,36.00
2018-03-26T02:18:30.105Z,35.80
2018-03-26T02:20:58.737Z,35.47
2018-03-26T02:23:28.100Z,33.70
2018-03-26T02:25:58.085Z,32.90
2018-03-26T02:28:26.317Z,35.67
2018-03-26T02:30:54.950Z,32.27
2018-03-26T02:33:23.221Z,31.97
2018-03-26T02:35:52.962Z,34.60
2018-03-26T02:38:21.189Z,32.33
2018-03-26T02:40:50.579Z,32.27
2018-03-26T02:43:18.800Z,32.93
2018-03-26T02:45:47.033Z,30.80
2018-03-26T02:48:15.396Z,31.47
2018-03-26T02:50:43.683Z,31.70
2018-03-26T02:53:13.002Z,35.07
2018-03-26T02:55:41.279Z,33.63
2018-03-26T02:58:09.513Z,33.33
2018-03-26T03:00:37.746Z,38.20
2018-03-26T03:03:06.036Z,35.60
2018-03-26T03:05:34.262Z,36.33
2018-03-26T03:08:02.496Z,34.57
2018-03-26T03:10:31.935Z,33.27
2018-03-26T03:13:01.512Z,33.13
2018-03-26T03:15:30.760Z,36.07
2018-03-26T03:17:59.403Z,35.37
2018-03-26T03:20:28.033Z,34.23
2018-03-26T03:22:56.260Z,38.27
2018-03-26T03:25:24.532Z,34.80
2018-03-26T03:27:52.756Z,35.53
2018-03-26T03:30:20.993Z,38.60
2018-03-26T03:32:49.621Z,35.30
2018-03-26T03:35:17.857Z,39.70
2018-03-26T03:37:46.848Z,38.77
2018-03-26T03:40:15.569Z,40.27
2018-03-26T03:42:43.802Z,39.40
2018-03-26T03:45:12.041Z,38.57
2018-03-26T03:47:41.500Z,38.47
2018-03-26T03:50:09.729Z,38.30
2018-03-26T03:52:37.960Z,40.70
2018-03-26T03:55:06.702Z,37.80
2018-03-26T03:57:35.695Z,38.00
2018-03-26T04:00:04.826Z,36.70
2018-03-26T04:02:37.348Z,35.40
2018-03-26T04:05:06.449Z,39.67
2018-03-26T04:07:36.192Z,34.40
2018-03-26T04:10:05.229Z,38.20
2018-03-26T04:12:33.461Z,39.60
2018-03-26T04:15:02.462Z,38.43
2018-03-26T04:17:30.841Z,38.83
2018-03-26T04:19:59.836Z,38.73
2018-03-26T04:22:28.069Z,40.13
2018-03-26T04:24:57.216Z,39.80
2018-03-26T04:27:25.448Z,43.30
2018-03-26T04:29:53.678Z,43.00
2018-03-26T04:32:23.084Z,39.67
2018-03-26T04:34:51.316Z,45.20
2018-03-26T04:37:19.545Z,45.63
2018-03-26T04:39:47.929Z,42.30
2018-03-26T04:42:16.161Z,44.87
2018-03-26T04:44:44.788Z,41.60
2018-03-26T04:47:13.057Z,43.40
2018-03-26T04:49:42.048Z,45.03
2018-03-26T04:52:10.285Z,45.67
2018-03-26T04:54:38.561Z,44.50
2018-03-26T04:57:06.796Z,44.60
2018-03-26T04:59:35.028Z,43.40
2018-03-26T05:02:03.660Z,44.30
2018-03-26T05:04:32.660Z,41.87
2018-03-26T05:07:00.889Z,44.97
2018-03-26T05:09:29.557Z,47.10
2018-03-26T05:11:57.783Z,45.17
2018-03-26T05:14:27.208Z,45.07
2018-03-26T05:17:05.965Z,41.83
2018-03-26T05:19:35.702Z,46.77
2018-03-26T05:22:04.696Z,45.70
2018-03-26T05:24:33.856Z,47.73
2018-03-26T05:27:02.084Z,43.53
2018-03-26T05:29:30.312Z,44.63
2018-03-26T05:31:58.959Z,44.97
2018-03-26T05:34:27.960Z,47.80
2018-03-26T05:36:56.188Z,44.93
2018-03-26T05:39:24.868Z,47.20
2018-03-26T05:41:54.237Z,45.30
2018-03-26T05:44:22.472Z,44.20
2018-03-26T05:46:51.741Z,46.80
2018-03-26T05:49:20.736Z,46.20
2018-03-26T05:51:50.324Z,48.23
2018-03-26T05:54:18.868Z,48.73
2018-03-26T05:56:48.234Z,49.57
2018-03-26T05:59:17.228Z,50.27
2018-03-26T06:01:46.468Z,47.30
2018-03-26T06:04:15.471Z,49.83
2018-03-26T06:06:43.705Z,47.57
2018-03-26T06:09:12.084Z,48.97
2018-03-26T06:11:41.824Z,47.77
2018-03-26T06:14:10.824Z,49.60
2018-03-26T06:16:49.628Z,47.87
2018-03-26T06:19:17.864Z,45.93
2018-03-26T06:21:46.097Z,48.10
2018-03-26T06:24:15.305Z,46.10
2018-03-26T06:26:45.053Z,50.10
2018-03-26T06:29:14.423Z,45.60
2018-03-26T06:31:42.692Z,51.13
2018-03-26T06:34:11.694Z,49.40
2018-03-26T06:40:23.864Z,43.43
2018-03-26T06:42:52.253Z,45.00
2018-03-26T06:45:21.264Z,42.97
2018-03-26T06:47:49.488Z,42.93
2018-03-26T06:50:17.766Z,42.73
2018-03-26T06:52:45.999Z,42.50
2018-03-26T06:55:14.228Z,44.33
2018-03-26T06:57:44.168Z,40.50
2018-03-26T07:00:12.396Z,40.20
2018-03-26T07:02:40.653Z,38.60
2018-03-26T07:05:09.016Z,41.40
2018-03-26T07:07:37.753Z,42.30
2018-03-26T07:10:06.380Z,39.73
2018-03-26T07:12:34.651Z,38.27
2018-03-26T07:15:02.876Z,37.83
2018-03-26T07:17:31.104Z,39.03
2018-03-26T07:20:00.325Z,34.70
2018-03-26T07:22:28.961Z,35.70
2018-03-26T07:24:57.194Z,33.53
2018-03-26T07:27:25.464Z,34.43
2018-03-26T07:29:53.701Z,36.27
2018-03-26T07:32:21.944Z,34.90
2018-03-26T07:34:50.448Z,31.83
2018-03-26T07:37:20.203Z,34.83
2018-03-26T07:39:48.441Z,30.20
2018-03-26T07:42:16.710Z,29.23
2018-03-26T07:44:44.952Z,28.83
2018-03-26T07:47:13.196Z,31.90
2018-03-26T07:49:42.417Z,29.23
2018-03-26T07:52:10.657Z,30.93
2018-03-26T07:54:38.900Z,29.30
2018-03-26T07:57:08.317Z,29.00
2018-03-26T07:59:36.553Z,28.43
2018-03-26T08:02:04.788Z,28.27
2018-03-26T08:04:33.060Z,29.20
2018-03-26T08:07:01.300Z,27.00
2018-03-26T08:09:29.940Z,28.10
2018-03-26T08:11:59.371Z,28.00
2018-03-26T08:14:28.960Z,26.50
2018-03-26T08:16:57.506Z,25.27
2018-03-26T08:19:25.728Z,27.13
2018-03-26T08:21:55.468Z,26.13
2018-03-26T08:24:23.709Z,25.40
2018-03-26T08:26:52.181Z,25.20
2018-03-26T08:29:20.413Z,26.03
2018-03-26T08:31:48.656Z,24.07
2018-03-26T08:34:16.920Z,23.30
2018-03-26T08:36:45.156Z,25.80
2018-03-26T08:39:14.530Z,24.60
2018-03-26T08:41:43.084Z,23.77
2018-03-26T08:44:11.329Z,27.70
2018-03-26T08:46:39.557Z,23.47
2018-03-26T08:49:08.017Z,23.13
2018-03-26T08:51:37.025Z,21.33
2018-03-26T08:54:05.252Z,23.03
2018-03-26T08:56:33.748Z,22.57
2018-03-26T08:59:03.120Z,19.27
2018-03-26T09:01:31.362Z,20.70
2018-03-26T09:04:00.908Z,23.40
2018-03-26T09:06:29.540Z,21.57
2018-03-26T09:08:57.772Z,21.00
2018-03-26T09:11:26.821Z,21.50
2018-03-26T09:13:55.821Z,19.67
2018-03-26T09:16:24.053Z,20.00
2018-03-26T09:18:53.093Z,22.07
2018-03-26T09:21:21.324Z,17.03
2018-03-26T09:23:50.325Z,17.60
2018-03-26T09:26:18.904Z,16.70
2018-03-26T09:28:48.649Z,17.47
2018-03-26T09:31:16.880Z,18.43
2018-03-26T09:33:45.177Z,17.00
2018-03-26T09:36:13.416Z,16.30
2018-03-26T09:38:41.648Z,16.63
2018-03-26T09:41:09.924Z,16.03
2018-03-26T09:43:38.156Z,14.50
2018-03-26T09:46:07.745Z,14.03
2018-03-26T09:48:35.996Z,15.13
2018-03-26T09:51:04.236Z,13.57
2018-03-26T09:53:32.473Z,13.50
2018-03-26T09:56:00.772Z,12.97
2018-03-26T09:58:29.774Z,11.77
2018-03-26T10:01:02.010Z,11.93
2018-03-26T10:03:31.013Z,11.87
2018-03-26T10:06:00.777Z,9.00
2018-03-26T10:08:29.152Z,10.40
2018-03-26T10:10:58.519Z,9.50
2018-03-26T10:13:26.748Z,9.90
2018-03-26T10:15:55.732Z,9.40
2018-03-26T10:18:24.724Z,7.60
2018-03-26T10:20:53.716Z,7.73
2018-03-26T10:23:22.173Z,9.27
2018-03-26T10:25:51.173Z,9.20
2018-03-26T10:28:19.621Z,9.20
2018-03-26T10:30:48.284Z,7.57
2018-03-26T10:33:17.645Z,6.90
2018-03-26T10:35:45.868Z,6.60
2018-03-26T10:38:14.221Z,6.30
2018-03-26T10:40:43.952Z,8.20
2018-03-26T10:43:12.943Z,6.53
2018-03-26T10:45:42.729Z,6.50
2018-03-26T10:48:12.296Z,6.83
2018-03-26T10:50:40.392Z,6.30
2018-03-26T10:53:08.661Z,7.10
2018-03-26T10:55:36.883Z,6.60
2018-03-26T10:58:05.872Z,5.70
2018-03-26T11:00:35.093Z,6.13
2018-03-26T11:03:04.824Z,5.30
2018-03-26T11:05:33.813Z,5.27
2018-03-26T11:08:02.240Z,6.43
2018-03-26T11:10:31.238Z,6.17
2018-03-26T11:12:59.460Z,5.23
2018-03-26T11:15:29.316Z,5.50
2018-03-26T11:17:58.180Z,4.47
2018-03-26T11:20:26.405Z,5.10
2018-03-26T11:22:54.668Z,4.87
2018-03-26T11:25:24.028Z,5.40
2018-03-26T11:27:52.244Z,3.80
2018-03-26T11:30:21.272Z,5.80
2018-03-26T11:32:50.261Z,6.20
2018-03-26T11:35:18.480Z,4.20
2018-03-26T11:37:47.513Z,5.40
2018-03-26T11:40:16.501Z,5.70
2018-03-26T11:42:44.720Z,4.90
2018-03-26T11:45:13.752Z,5.20
2018-03-26T11:47:42.740Z,4.10
2018-03-26T11:50:10.964Z,4.83
2018-03-26T11:52:40.181Z,4.07
2018-03-26T11:55:09.193Z,2.93
2018-03-26T11:57:37.396Z,3.57
2018-03-26T12:00:07.012Z,4.77
2018-03-26T12:02:35.511Z,4.93
2018-03-26T12:05:03.736Z,4.07
2018-03-26T12:07:32.776Z,3.40
2018-03-26T12:10:01.001Z,3.50
2018-03-26T12:12:29.996Z,3.80
2018-03-26T12:14:58.255Z,2.80
2018-03-26T12:17:26.476Z,2.87
2018-03-26T12:20:06.657Z,3.20
2018-03-26T12:22:34.877Z,3.23
2018-03-26T12:25:07.525Z,3.23
2018-03-26T12:27:48.462Z,2.20
2018-03-26T12:30:27.204Z,2.87
2018-03-26T12:32:55.429Z,2.90
2018-03-26T12:35:35.734Z,3.13
2018-03-26T12:38:03.957Z,2.80
2018-03-26T12:40:44.369Z,2.80
2018-03-26T12:43:14.105Z,2.33
2018-03-26T12:45:54.212Z,2.50
2018-03-26T12:48:23.789Z,2.37
2018-03-26T12:51:07.264Z,2.73
2018-03-26T12:53:35.884Z,2.67
2018-03-26T12:56:04.109Z,2.70
2018-03-26T12:58:52.080Z,2.10
2018-03-26T13:01:32.752Z,2.50
2018-03-26T13:04:01.012Z,3.03
2018-03-26T13:06:29.244Z,2.60
2018-03-26T13:08:57.472Z,2.73
2018-03-26T13:11:27.083Z,2.57
2018-03-26T13:13:55.176Z,2.83
2018-03-26T13:16:24.756Z,2.53
2018-03-26T13:18:53.869Z,2.53
2018-03-26T13:21:22.856Z,2.30
2018-03-26T13:23:51.080Z,2.43
2018-03-26T13:26:20.261Z,2.70
2018-03-26T13:28:49.252Z,2.50
2018-03-26T13:31:17.477Z,3.23
2018-03-26T13:33:45.763Z,2.73
2018-03-26T13:36:13.964Z,2.50
2018-03-26T13:38:42.184Z,2.93
2018-03-26T13:41:10.457Z,3.00
2018-03-26T13:43:40.185Z,2.67
2018-03-26T13:46:09.177Z,2.17
2018-03-26T13:48:38.200Z,3.03
2018-03-26T13:51:07.192Z,3.13
2018-03-26T13:53:35.421Z,3.47
2018-03-26T13:56:05.040Z,2.40
2018-03-26T13:58:33.259Z,1.70
2018-03-26T14:01:02.836Z,2.30
2018-03-26T14:03:31.030Z,1.77
2018-03-26T14:05:59.256Z,2.20
2018-03-26T14:08:39.776Z,2.27
2018-03-26T14:11:15.367Z,2.73
2018-03-26T14:13:56.105Z,3.67
2018-03-26T14:16:36.401Z,2.67
2018-03-26T14:19:06.388Z,3.43
2018-03-26T14:21:35.629Z,3.13
2018-03-26T14:24:03.895Z,4.00
2018-03-26T14:26:32.117Z,3.60
2018-03-26T14:29:00.340Z,4.40
2018-03-26T14:31:28.564Z,3.50
2018-03-26T14:34:00.596Z,3.80
2018-03-26T14:36:30.326Z,3.57
2018-03-26T14:38:59.907Z,3.50
2018-03-26T14:41:28.852Z,3.53
2018-03-26T14:43:57.076Z,3.73
2018-03-26T14:46:26.812Z,4.53
2018-03-26T14:48:55.884Z,4.27
2018-03-26T14:51:25.472Z,3.50
2018-03-26T14:53:53.576Z,3.90
2018-03-26T14:56:23.461Z,3.90
2018-03-26T14:58:51.689Z,3.73
2018-03-26T15:01:19.923Z,3.63
2018-03-26T15:04:02.801Z,4.53
2018-03-26T15:06:31.793Z,4.60
2018-03-26T15:09:00.008Z,4.93
2018-03-26T15:11:28.372Z,4.30
2018-03-26T15:13:58.103Z,4.40
2018-03-26T15:16:26.331Z,4.97
2018-03-26T15:18:55.028Z,4.30
2018-03-26T15:21:24.392Z,3.87
2018-03-26T15:23:53.801Z,4.70
2018-03-26T15:26:23.983Z,3.70
2018-03-26T15:28:52.977Z,4.87
2018-03-26T15:31:21.200Z,3.60
2018-03-26T15:33:49.477Z,3.77
2018-03-26T15:36:17.705Z,4.80
2018-03-26T15:38:45.932Z,4.40
2018-03-26T15:41:14.220Z,5.53
2018-03-26T15:43:42.441Z,6.23
2018-03-26T15:46:11.440Z,4.47
2018-03-26T15:48:40.500Z,5.70
2018-03-26T15:51:08.730Z,4.60
2018-03-26T15:53:37.716Z,4.80
2018-03-26T15:56:06.372Z,5.60
2018-03-26T15:58:34.605Z,5.80
2018-03-26T16:01:02.833Z,5.30
2018-03-26T16:03:30.765Z,5.27
2018-03-26T16:05:58.992Z,5.13
2018-03-26T16:08:27.216Z,5.97
2018-03-26T16:10:56.664Z,5.07
2018-03-26T16:13:25.239Z,6.40
2018-03-26T16:15:53.657Z,6.17
2018-03-26T16:18:21.956Z,5.80
2018-03-26T16:20:50.952Z,5.60
2018-03-26T16:23:19.273Z,5.80
2018-03-26T16:25:47.541Z,5.73
2018-03-26T16:28:17.281Z,5.80
2018-03-26T16:30:45.517Z,5.17
2018-03-26T16:33:14.565Z,5.10
2018-03-26T16:35:44.148Z,6.27
2018-03-26T16:38:12.265Z,5.43
2018-03-26T16:40:42.141Z,4.80
2018-03-26T16:43:10.406Z,4.83
2018-03-26T16:45:38.683Z,4.43
2018-03-26T16:48:07.136Z,4.87
2018-03-26T16:50:36.716Z,4.93
2018-03-26T16:53:05.720Z,5.70
2018-03-26T16:55:34.744Z,5.30
2018-03-26T16:58:03.374Z,4.87
2018-03-26T17:00:31.597Z,5.40
2018-03-26T17:02:59.860Z,5.10
2018-03-26T17:05:29.597Z,6.97
2018-03-26T17:07:57.859Z,6.57
2018-03-26T17:10:26.304Z,5.50
2018-03-26T17:12:55.296Z,6.30
2018-03-26T17:15:24.367Z,5.27
2018-03-26T17:17:52.641Z,5.90
2018-03-26T17:20:21.634Z,4.90
2018-03-26T17:22:49.861Z,5.73
2018-03-26T17:25:19.472Z,7.50
2018-03-26T17:27:48.717Z,5.80
2018-03-26T17:30:16.932Z,5.93
2018-03-26T17:32:45.440Z,5.87
2018-03-26T17:35:14.436Z,6.03
2018-03-26T17:37:42.748Z,8.37
2018-03-26T17:40:11.312Z,6.37
2018-03-26T17:42:39.544Z,6.20
2018-03-26T17:45:08.116Z,5.80
2018-03-26T17:47:38.411Z,6.43
2018-03-26T17:50:07.032Z,6.37
2018-03-26T17:52:35.258Z,6.00
2018-03-26T17:55:03.925Z,10.27
2018-03-26T17:57:33.301Z,11.80
2018-03-26T18:00:01.532Z,11.20
2018-03-26T18:02:29.841Z,10.07
2018-03-26T18:04:58.078Z,9.23
2018-03-26T18:07:26.358Z,8.17
2018-03-26T18:09:54.621Z,5.87
2018-03-26T18:12:23.436Z,6.20
2018-03-26T18:14:52.800Z,5.63
2018-03-26T18:17:22.800Z,4.93
2018-03-26T18:19:53.068Z,5.67
2018-03-26T18:22:21.688Z,8.60
2018-03-26T18:24:50.997Z,5.67
2018-03-26T18:27:19.989Z,4.73
2018-03-26T18:29:49.737Z,6.40
2018-03-26T18:32:18.273Z,6.80
2018-03-26T18:34:46.885Z,6.87
2018-03-26T18:37:15.517Z,6.80
2018-03-26T18:39:43.784Z,7.40
2018-03-26T18:42:12.032Z,6.30
2018-03-26T18:44:40.657Z,6.50
2018-03-26T18:47:09.280Z,6.77
2018-03-26T18:49:37.907Z,6.43
2018-03-26T18:52:06.137Z,8.10
2018-03-26T18:54:34.413Z,7.03
2018-03-26T18:57:02.697Z,6.60
2018-03-26T18:59:30.969Z,7.47
2018-03-26T19:02:00.924Z,6.70
2018-03-26T19:04:30.538Z,7.03
2018-03-26T19:06:59.535Z,7.87
2018-03-26T19:09:30.992Z,7.27
2018-03-26T19:11:59.244Z,6.90
2018-03-26T19:14:27.641Z,7.87
2018-03-26T19:16:57.764Z,7.37
2018-03-26T19:19:26.000Z,7.20
2018-03-26T19:21:54.238Z,7.20
2018-03-26T19:24:22.613Z,8.80
2018-03-26T19:26:51.620Z,8.90
2018-03-26T19:29:19.856Z,8.83
2018-03-26T19:31:48.130Z,8.70
2018-03-26T19:34:17.961Z,8.63
2018-03-26T19:36:46.972Z,8.50
2018-03-26T19:39:16.321Z,9.80
2018-03-26T19:41:44.560Z,45.80
2018-03-26T19:44:12.800Z,21.07
2018-03-26T19:46:42.216Z,11.40
2018-03-26T19:49:10.533Z,8.97
2018-03-26T19:51:38.773Z,9.90
2018-03-26T19:54:07.217Z,9.97
2018-03-26T19:56:35.465Z,10.53
2018-03-26T19:59:03.756Z,11.10
2018-03-26T20:01:34.002Z,10.33
2018-03-26T20:04:02.286Z,11.20
2018-03-26T20:06:31.329Z,10.63
2018-03-26T20:09:01.310Z,10.73
2018-03-26T20:11:30.201Z,9.87
2018-03-26T20:13:59.589Z,11.30
2018-03-26T20:16:27.897Z,12.07
2018-03-26T20:18:56.140Z,10.33
2018-03-26T20:21:25.150Z,13.50
2018-03-26T20:23:54.241Z,10.63
2018-03-26T20:26:22.481Z,13.07
2018-03-26T20:28:50.716Z,11.50
2018-03-26T20:31:19.349Z,11.20
2018-03-26T20:33:47.704Z,13.50
2018-03-26T20:36:16.796Z,12.10
2018-03-26T20:38:45.069Z,12.63
2018-03-26T20:41:14.812Z,13.63
2018-03-26T20:43:43.058Z,13.17
2018-03-26T20:46:12.859Z,12.60
2018-03-26T20:50:07.312Z,13.13
2018-03-26T20:52:36.365Z,12.93
2018-03-26T20:55:04.672Z,13.40
2018-03-26T20:57:33.675Z,14.00
2018-03-26T21:00:01.944Z,14.53
2018-03-26T21:02:30.229Z,13.43
2018-03-26T21:04:58.458Z,15.03
2018-03-26T21:07:26.967Z,14.37
2018-03-26T21:09:55.983Z,15.77
2018-03-26T21:12:24.220Z,15.10
2018-03-26T21:14:52.605Z,15.47
2018-03-26T21:17:20.874Z,17.43
2018-03-26T21:19:49.117Z,14.60
2018-03-26T21:22:17.552Z,16.17
2018-03-26T21:24:46.963Z,17.17
2018-03-26T21:27:16.577Z,15.47
2018-03-26T21:29:46.112Z,18.47
2018-03-26T21:32:15.112Z,19.23
2018-03-26T21:34:43.340Z,16.87
2018-03-26T21:37:11.795Z,18.03
2018-03-26T21:39:40.424Z,21.13
2018-03-26T21:42:08.667Z,19.53
2018-03-26T21:44:38.751Z,17.97
2018-03-26T21:47:07.633Z,16.13
2018-03-26T21:49:36.676Z,15.60
2018-03-26T21:52:04.948Z,15.80
2018-03-26T21:54:33.949Z,18.03
2018-03-26T21:57:02.180Z,17.47
2018-03-26T21:59:30.447Z,17.27
2018-03-26T22:01:58.684Z,17.43
2018-03-26T22:04:26.973Z,18.73
2018-03-26T22:06:55.488Z,18.07
2018-03-26T22:09:23.728Z,17.93
2018-03-26T22:11:51.961Z,19.27
2018-03-26T22:14:21.028Z,19.80
2018-03-26T22:16:49.260Z,20.27
2018-03-26T22:19:17.488Z,21.77
2018-03-26T22:21:46.154Z,20.40
2018-03-26T22:24:15.521Z,21.37
2018-03-26T22:26:45.112Z,22.13
2018-03-26T22:29:14.796Z,22.20
2018-03-26T22:31:44.541Z,22.43
2018-03-26T22:34:13.909Z,21.83
2018-03-26T22:36:42.288Z,21.33
2018-03-26T22:39:10.535Z,21.03
2018-03-26T22:41:38.757Z,21.50
2018-03-26T22:44:07.192Z,21.43
2018-03-26T22:46:36.788Z,21.57
2018-03-26T22:49:04.903Z,24.20
2018-03-26T22:51:33.565Z,26.40
2018-03-26T22:54:03.313Z,27.57
2018-03-26T22:56:31.544Z,28.00
2018-03-26T22:58:59.817Z,30.70
2018-03-26T23:01:29.184Z,30.33
2018-03-26T23:03:58.775Z,29.50
2018-03-26T23:06:27.517Z,31.30
2018-03-26T23:08:55.752Z,30.77
2018-03-26T23:11:23.985Z,31.23
2018-03-26T23:13:52.736Z,31.37
2018-03-26T23:16:21.737Z,32.07
2018-03-26T23:18:50.757Z,31.27
2018-03-26T23:21:19.017Z,31.97
2018-03-26T23:23:47.252Z,34.80
2018-03-26T23:26:16.257Z,32.00
2018-03-26T23:28:44.532Z,33.57
2018-03-26T23:31:13.156Z,34.20
2018-03-26T23:33:41.392Z,35.70
2018-03-26T23:36:09.669Z,34.43
2018-03-26T23:38:37.900Z,34.47
2018-03-26T23:41:06.901Z,32.90
2018-03-26T23:43:35.392Z,37.03
2018-03-26T23:46:03.626Z,35.30
2018-03-26T23:48:31.847Z,34.10
2018-03-26T23:51:00.121Z,36.47
2018-03-26T23:53:28.352Z,36.30
2018-03-26T23:55:56.581Z,37.67
2018-03-26T23:58:25.612Z,36.60
